Time;durP1;ratioP1;P1;durP2;ratioP2;P2;SDS_P1;SDS_P2;PMS_P1;PMS_P2;Temp;Humidity;BMP_temperature;BMP_pressure;BME280_temperature;BME280_humidity;BME280_pressure;Samples;Min_cycle;Max_cycle;Signal;HPM_P1;HPM_P2
2023/12/08 00:00:07;;;;;;;18.42;13.52;;;;;;;-0.99;100.00;148419.06;10312417;28;20066;-80
2023/12/08 00:05:09;;;;;;;17.88;13.48;;;;;;;-0.82;100.00;148463.84;10329107;28;20133;-78
2023/12/08 00:10:12;;;;;;;26.45;17.23;;;;;;;-0.67;100.00;148500.94;10332143;28;20502;-80
2023/12/08 00:15:14;;;;;;;28.88;17.80;;;;;;;-0.44;100.00;148557.22;10329636;28;20125;-78
2023/12/08 00:20:16;;;;;;;23.25;16.23;;;;;;;-0.48;100.00;148547.03;10332217;28;20051;-78
2023/12/08 00:25:18;;;;;;;29.55;17.60;;;;;;;-0.53;100.00;148536.78;10349198;28;20042;-79
2023/12/08 00:30:20;;;;;;;36.75;17.98;;;;;;;-0.47;100.00;148550.84;10356200;28;20146;-78
2023/12/08 00:35:24;;;;;;;29.63;16.65;;;;;;;-0.41;100.00;148566.19;10337096;28;20039;-80
2023/12/08 00:40:26;;;;;;;32.17;18.30;;;;;;;-0.73;100.00;148484.31;10358690;28;20050;-79
2023/12/08 00:45:28;;;;;;;23.33;14.48;;;;;;;-0.97;100.00;148425.50;10349585;28;20046;-78
2023/12/08 00:50:30;;;;;;;29.45;16.85;;;;;;;-1.10;100.00;148392.22;10347475;28;20097;-79
2023/12/08 00:55:31;;;;;;;24.90;15.23;;;;;;;-1.14;100.00;148382.00;10346886;28;20056;-80
2023/12/08 01:00:33;;;;;;;23.60;16.63;;;;;;;-1.23;100.00;148358.97;10350787;28;20065;-80
2023/12/08 01:05:35;;;;;;;25.40;15.27;;;;;;;-1.18;100.00;148371.75;10350679;28;20149;-78
2023/12/08 01:10:37;;;;;;;30.48;16.65;;;;;;;-1.37;100.00;148325.72;10376800;28;20042;-80
2023/12/08 01:15:39;;;;;;;25.05;15.07;;;;;;;-1.26;100.00;148352.56;10331691;28;20050;-79
2023/12/08 01:20:40;;;;;;;31.73;17.67;;;;;;;-0.66;100.00;148502.25;10353995;28;20062;-81
2023/12/08 01:25:42;;;;;;;30.52;18.38;;;;;;;-0.82;100.00;148462.56;10330955;28;20065;-79
2023/12/08 01:30:44;;;;;;;28.48;17.63;;;;;;;-0.99;100.00;148420.34;10348304;28;20074;-81
2023/12/08 01:35:45;;;;;;;25.73;16.13;;;;;;;-1.14;100.00;148382.00;10347270;28;20077;-81
2023/12/08 01:40:47;;;;;;;30.27;16.73;;;;;;;-1.15;100.00;148379.41;10343512;28;20110;-81
2023/12/08 01:45:50;;;;;;;28.75;18.13;;;;;;;-0.87;100.00;148449.78;10312312;28;20074;-79
2023/12/08 01:50:52;;;;;;;34.55;17.60;;;;;;;-1.04;100.00;148408.84;10317079;28;20129;-80
2023/12/08 01:55:55;;;;;;;34.42;19.25;;;;;;;-0.89;100.00;148445.91;10332291;28;20047;-79
2023/12/08 02:00:58;;;;;;;23.63;15.68;;;;;;;-1.13;100.00;148385.81;10336631;28;20129;-79
2023/12/08 02:06:03;;;;;;;25.73;16.45;;;;;;;-1.39;100.00;148320.59;10358378;28;20042;-79
2023/12/08 02:11:05;;;;;;;28.75;17.08;;;;;;;-1.25;100.00;148355.13;10364119;28;20054;-79
2023/12/08 02:16:16;;;;;;;28.10;16.73;;;;;;;-1.40;100.00;148316.78;10357469;28;20046;-79
2023/12/08 02:21:18;;;;;;;33.00;17.90;;;;;;;-1.59;100.00;148270.75;10366027;28;20043;-79
2023/12/08 02:26:20;;;;;;;34.22;18.15;;;;;;;-1.63;100.00;148259.25;10356598;28;20050;-80
2023/12/08 02:31:35;;;;;;;27.63;16.67;;;;;;;-1.68;100.00;148247.75;10363513;28;20410;-78
2023/12/08 02:36:38;;;;;;;26.35;15.23;;;;;;;-1.82;100.00;148211.94;10356784;28;20406;-80
2023/12/08 02:41:41;;;;;;;31.92;17.73;;;;;;;-1.48;100.00;148296.31;10355157;28;20042;-80
2023/12/08 02:46:43;;;;;;;32.63;17.33;;;;;;;-1.35;100.00;148329.56;10361700;28;20073;-79
2023/12/08 02:51:45;;;;;;;31.70;19.10;;;;;;;-1.20;100.00;148367.91;10345571;28;20074;-79
2023/12/08 02:56:47;;;;;;;33.33;17.42;;;;;;;-1.13;100.00;148384.53;10333669;28;20426;-80
2023/12/08 03:01:49;;;;;;;28.80;16.27;;;;;;;-1.00;100.00;148417.78;10321005;28;20078;-79
2023/12/08 03:06:50;;;;;;;28.08;16.92;;;;;;;-1.02;100.00;148413.97;10336759;28;20050;-79
2023/12/08 03:11:52;;;;;;;26.83;16.58;;;;;;;-1.19;100.00;148370.50;10353691;28;20050;-79
2023/12/08 03:16:54;;;;;;;32.08;17.35;;;;;;;-0.95;100.00;148429.31;10337000;28;20050;-80
2023/12/08 03:21:55;;;;;;;27.48;16.45;;;;;;;-1.12;100.00;148388.38;10334211;28;20038;-80
2023/12/08 03:26:57;;;;;;;25.85;16.17;;;;;;;-0.91;100.00;148440.81;10340519;28;20077;-80
2023/12/08 03:31:59;;;;;;;24.67;15.60;;;;;;;-0.78;100.00;148472.81;10370471;28;20471;-80
2023/12/08 03:37:01;;;;;;;20.45;14.75;;;;;;;-0.86;100.00;148453.59;10362744;28;20046;-79
2023/12/08 03:42:03;;;;;;;20.10;14.07;;;;;;;-0.99;100.00;148419.06;10353143;28;20070;-81
2023/12/08 03:47:05;;;;;;;19.05;13.45;;;;;;;-0.76;100.00;148479.19;10332837;28;20403;-80
2023/12/08 03:52:06;;;;;;;17.27;12.05;;;;;;;-0.72;100.00;148488.13;10329373;28;20050;-81
2023/12/08 03:57:08;;;;;;;22.38;13.25;;;;;;;-0.74;100.00;148481.78;10348056;28;20117;-80
2023/12/08 04:02:10;;;;;;;19.40;12.88;;;;;;;-0.56;100.00;148527.81;10331229;28;20065;-80
2023/12/08 04:07:12;;;;;;;17.48;14.00;;;;;;;-0.61;100.00;148515.03;10341044;28;20054;-80
2023/12/08 04:12:13;;;;;;;15.35;12.15;;;;;;;-0.58;100.00;148523.94;10358944;28;20050;-79
2023/12/08 04:17:15;;;;;;;14.82;11.98;;;;;;;-0.49;100.00;148545.72;10358327;28;20052;-79
2023/12/08 04:22:17;;;;;;;20.02;11.32;;;;;;;-0.37;100.00;148575.16;10351975;28;20038;-79
2023/12/08 04:27:18;;;;;;;13.43;11.98;;;;;;;-0.49;100.00;148544.44;10350228;28;20046;-79
2023/12/08 04:32:20;;;;;;;13.88;11.18;;;;;;;-0.60;100.00;148518.84;10350226;28;20050;-79
2023/12/08 04:37:22;;;;;;;14.80;10.75;;;;;;;-0.45;100.00;148555.94;10316838;28;20042;-79
2023/12/08 04:42:24;;;;;;;13.80;10.55;;;;;;;-0.49;100.00;148544.44;10332780;28;20050;-79
2023/12/08 04:47:26;;;;;;;15.80;10.88;;;;;;;-0.77;100.00;148475.34;10347262;28;20033;-79
2023/12/08 04:52:28;;;;;;;15.63;9.88;;;;;;;-0.49;100.00;148544.44;10355483;28;20062;-79
2023/12/08 04:57:31;;;;;;;13.75;11.05;;;;;;;-0.36;97.94;148577.72;10340232;28;20074;-79
2023/12/08 05:02:33;;;;;;;10.25;9.18;;;;;;;-0.41;96.83;148564.91;10348860;28;20050;-79
2023/12/08 05:07:35;;;;;;;13.13;9.35;;;;;;;-0.33;96.39;148585.41;10365267;28;20050;-80
2023/12/08 05:12:37;;;;;;;9.25;8.35;;;;;;;-0.33;95.46;148586.66;10334177;28;20038;-80
2023/12/08 05:17:39;;;;;;;11.20;8.38;;;;;;;-0.33;94.84;148586.66;10351384;28;20072;-81
2023/12/08 05:22:41;;;;;;;10.52;8.45;;;;;;;-0.54;95.31;148532.91;10337450;28;20038;-80
2023/12/08 05:27:43;;;;;;;10.68;8.60;;;;;;;-0.45;94.57;148554.69;10353371;28;20042;-80
2023/12/08 05:32:44;;;;;;;12.15;8.60;;;;;;;-0.41;94.46;148566.19;10353655;28;20121;-80
2023/12/08 05:37:46;;;;;;;10.13;8.15;;;;;;;-0.43;94.35;148559.81;10358649;28;20057;-80
2023/12/08 05:42:48;;;;;;;10.60;8.77;;;;;;;-0.57;94.97;148525.28;10357394;28;20042;-80
2023/12/08 05:47:50;;;;;;;10.38;9.10;;;;;;;-0.86;96.82;148453.59;10357930;28;20042;-79
2023/12/08 05:52:52;;;;;;;9.13;7.78;;;;;;;-0.68;96.52;148498.38;10357796;28;20073;-79
2023/12/08 05:57:54;;;;;;;10.40;8.15;;;;;;;-0.46;93.63;148552.13;10359582;28;20042;-79
2023/12/08 06:02:55;;;;;;;10.68;8.30;;;;;;;-0.58;93.18;148523.94;10357490;28;20049;-79
2023/12/08 06:07:57;;;;;;;10.25;8.00;;;;;;;-0.83;94.40;148460.03;10341476;28;20055;-78
2023/12/08 06:12:59;;;;;;;9.30;7.35;;;;;;;-0.89;94.66;148445.91;10377668;28;20043;-78
2023/12/08 06:18:01;;;;;;;9.95;8.23;;;;;;;-0.63;93.61;148511.16;10380974;28;20057;-78
2023/12/08 06:23:03;;;;;;;9.65;6.75;;;;;;;-0.70;92.44;148492.00;10351289;28;20103;-79
2023/12/08 06:28:05;;;;;;;8.02;6.78;;;;;;;-0.59;92.79;148521.41;10387367;28;20057;-77
2023/12/08 06:33:07;;;;;;;7.43;5.80;;;;;;;-0.55;90.67;148531.66;10370304;28;20152;-79
2023/12/08 06:38:10;;;;;;;6.80;6.05;;;;;;;-0.46;90.17;148553.41;10379479;28;20050;-80
2023/12/08 06:43:11;;;;;;;6.22;5.07;;;;;;;-0.51;89.47;148540.63;10356802;28;20049;-79
2023/12/08 06:48:13;;;;;;;6.22;5.03;;;;;;;-0.59;89.87;148520.13;10387824;28;20023;-79
2023/12/08 06:53:16;;;;;;;5.72;4.88;;;;;;;-0.53;90.44;148535.50;10370065;28;20050;-79
2023/12/08 06:58:18;;;;;;;6.38;5.40;;;;;;;-0.52;90.45;148539.34;10359573;28;20047;-79
2023/12/08 07:03:19;;;;;;;6.97;5.93;;;;;;;-0.37;90.02;148575.16;10364240;28;20098;-80
2023/12/08 07:08:21;;;;;;;6.45;4.55;;;;;;;-0.22;89.47;148612.25;10320818;28;20054;-80
2023/12/08 07:13:23;;;;;;;6.93;5.70;;;;;;;-0.46;90.99;148552.13;10356941;28;20479;-80
2023/12/08 07:18:25;;;;;;;6.38;4.85;;;;;;;-0.51;91.54;148541.88;10357517;28;20057;-80
2023/12/08 07:23:27;;;;;;;8.02;5.95;;;;;;;-0.42;91.15;148562.38;10354528;28;20062;-79
2023/12/08 07:28:28;;;;;;;6.72;5.47;;;;;;;-0.17;90.14;148626.38;10350048;28;20133;-78
2023/12/08 07:33:30;;;;;;;8.60;5.82;;;;;;;-0.15;89.63;148631.47;10333979;28;20038;-81
2023/12/08 07:38:32;;;;;;;7.72;6.22;;;;;;;-0.13;89.96;148635.34;10337837;28;20038;-81
2023/12/08 07:43:35;;;;;;;7.82;7.03;;;;;;;-0.14;89.39;148634.03;10337172;28;20069;-82
2023/12/08 07:48:36;;;;;;;8.30;7.43;;;;;;;0.03;88.17;148675.00;10354602;28;20046;-81
2023/12/08 07:53:38;;;;;;;8.02;7.10;;;;;;;0.06;88.30;148682.69;10354036;28;20106;-80
2023/12/08 07:58:40;;;;;;;9.75;6.75;;;;;;;-0.12;89.15;148637.88;10356417;28;20069;-80
2023/12/08 08:03:42;;;;;;;8.00;7.07;;;;;;;-0.10;89.28;148644.25;10360410;28;20491;-81
2023/12/08 08:08:44;;;;;;;13.18;6.80;;;;;;;-0.01;89.08;148667.28;10358364;23;20048;-79
2023/12/08 08:13:45;;;;;;;10.43;7.70;;;;;;;0.02;88.93;148673.72;10336097;28;20048;-82
2023/12/08 08:18:47;;;;;;;10.73;8.50;;;;;;;-0.01;90.11;148666.03;10350666;28;20054;-83
2023/12/08 08:23:51;;;;;;;12.88;8.40;;;;;;;-0.05;91.04;148657.06;10331988;28;20520;-80
2023/12/08 08:28:54;;;;;;;10.10;8.63;;;;;;;0.08;89.09;148689.06;10440895;22;20092;-72
2023/12/08 08:33:56;;;;;;;10.23;8.38;;;;;;;0.15;90.01;148705.72;10418319;28;20038;-73
2023/12/08 08:38:58;;;;;;;11.18;8.20;;;;;;;0.04;89.69;148677.53;10420584;28;20052;-73
2023/12/08 08:44:01;;;;;;;11.43;8.55;;;;;;;-0.02;91.18;148664.75;10422243;28;20083;-74
2023/12/08 08:49:04;;;;;;;10.57;7.40;;;;;;;0.11;90.10;148696.75;10422073;28;20045;-73
2023/12/08 08:54:07;;;;;;;7.90;6.68;;;;;;;0.12;89.77;148698.03;10403399;28;20052;-73
2023/12/08 08:59:09;;;;;;;10.38;8.30;;;;;;;0.02;91.38;148673.72;10395244;23;20039;-70
2023/12/08 09:04:10;;;;;;;8.85;6.68;;;;;;;0.05;91.61;148680.13;10337591;28;20124;-73
2023/12/08 09:09:13;;;;;;;11.18;8.30;;;;;;;0.13;90.90;148700.59;10335588;28;20494;-69
2023/12/08 09:14:15;;;;;;;11.10;8.52;;;;;;;0.30;90.03;148742.84;10335494;28;20070;-69
2023/12/08 09:19:17;;;;;;;12.52;9.18;;;;;;;0.38;90.57;148763.34;10302237;28;20050;-70
2023/12/08 09:24:19;;;;;;;11.05;7.88;;;;;;;0.22;91.21;148724.94;10338246;28;20494;-69
2023/12/08 09:29:21;;;;;;;9.05;7.07;;;;;;;0.37;90.96;148760.78;10318340;28;20138;-69
2023/12/08 09:34:23;;;;;;;11.15;8.55;;;;;;;0.49;89.81;148792.81;10335127;28;20562;-67
2023/12/08 09:39:25;;;;;;;10.68;7.88;;;;;;;0.55;90.10;148806.91;10336044;28;20066;-70
2023/12/08 09:44:27;;;;;;;9.20;8.13;;;;;;;0.55;89.47;148805.63;10337911;28;20042;-68
2023/12/08 09:49:42;;;;;;;9.18;7.00;;;;;;;0.59;88.20;148815.88;10335767;28;20051;-70
2023/12/08 09:54:46;;;;;;;8.48;7.63;;;;;;;0.67;88.86;148836.38;10317004;28;20145;-68
2023/12/08 09:59:51;;;;;;;8.18;7.00;;;;;;;0.79;87.92;148865.78;10371225;23;20051;-71
2023/12/08 10:04:53;;;;;;;8.75;6.78;;;;;;;0.91;86.99;148896.56;10338617;28;20042;-70
2023/12/08 10:09:55;;;;;;;6.70;6.07;;;;;;;1.09;84.39;148941.41;10337157;28;20050;-71
2023/12/08 10:14:58;;;;;;;8.90;6.82;;;;;;;1.03;84.01;148927.31;10337625;28;20066;-71
2023/12/08 10:20:11;;;;;;;8.73;6.72;;;;;;;0.97;85.23;148911.91;10338675;28;20141;-70
2023/12/08 10:25:18;;;;;;;8.18;5.95;;;;;;;0.85;86.02;148882.47;10345325;28;20130;-70
2023/12/08 10:30:21;;;;;;;7.05;5.95;;;;;;;0.99;84.61;148918.34;10435135;22;20042;-67
2023/12/08 10:35:24;;;;;;;8.75;7.07;;;;;;;1.09;84.73;148942.66;10385106;28;20049;-68
2023/12/08 10:40:26;;;;;;;7.53;6.18;;;;;;;1.12;82.47;148949.09;10348297;28;20144;-68
2023/12/08 10:45:28;;;;;;;7.75;6.88;;;;;;;1.18;84.02;148965.75;10381247;28;20129;-68
2023/12/08 10:50:31;;;;;;;8.35;6.53;;;;;;;1.41;82.16;149022.13;10381646;28;20049;-68
2023/12/08 10:55:33;;;;;;;7.75;6.28;;;;;;;1.29;82.65;148992.66;10385682;28;20100;-67
2023/12/08 11:00:35;;;;;;;7.90;6.50;;;;;;;1.34;83.22;149005.47;10381257;28;20064;-69
2023/12/08 11:05:48;;;;;;;9.13;6.55;;;;;;;1.31;82.25;148997.78;10382100;28;20042;-68
2023/12/08 11:10:55;;;;;;;10.15;6.47;;;;;;;1.41;83.57;149022.13;10381975;28;20050;-67
2023/12/08 11:16:27;;;;;;;8.85;6.68;;;;;;;1.42;82.37;149024.72;10368495;28;20417;-69
2023/12/08 11:21:29;;;;;;;6.72;6.03;;;;;;;1.48;82.32;149041.34;10363258;28;20046;-68
2023/12/08 11:26:49;;;;;;;9.60;6.95;;;;;;;1.76;80.89;149111.84;10380713;28;20041;-68
2023/12/08 11:32:04;;;;;;;7.72;6.82;;;;;;;1.96;78.63;149161.88;10380928;28;20421;-69
2023/12/08 11:37:07;;;;;;;6.38;5.75;;;;;;;1.84;78.10;149131.09;10383390;28;20500;-68
2023/12/08 11:42:16;;;;;;;7.75;6.80;;;;;;;2.13;78.26;149202.94;10382360;28;20164;-69
2023/12/08 11:47:21;;;;;;;7.63;6.75;;;;;;;2.11;75.77;149199.06;10381050;28;20046;-68
2023/12/08 11:52:31;;;;;;;7.20;6.43;;;;;;;2.05;77.63;149183.69;10362423;28;20520;-67
2023/12/08 11:57:38;;;;;;;6.90;6.20;;;;;;;1.83;78.71;149127.28;10379384;28;20073;-67
2023/12/08 12:02:41;;;;;;;9.10;6.80;;;;;;;1.71;79.89;149099.03;10380760;28;20053;-67
2023/12/08 12:07:46;;;;;;;8.38;6.25;;;;;;;2.05;78.11;149183.69;10379311;28;20042;-67
2023/12/08 12:12:52;;;;;;;12.88;7.95;;;;;;;2.14;77.58;149206.75;10379732;28;20133;-67
2023/12/08 12:17:55;;;;;;;11.38;7.93;;;;;;;2.22;76.41;149226.00;10380919;28;20038;-67
2023/12/08 12:22:58;;;;;;;8.98;7.20;;;;;;;2.35;75.92;149258.09;10382808;28;20041;-67
2023/12/08 12:33:51;;;;;;;8.00;6.68;;;;;;;2.39;75.72;149268.31;10218215;29;20047;-68
2023/12/08 12:38:54;;;;;;;11.05;7.25;;;;;;;2.50;75.09;149296.53;10250277;29;20051;-69
2023/12/08 12:43:56;;;;;;;9.00;7.25;;;;;;;2.59;75.08;149319.63;10254936;28;20043;-69
2023/12/08 12:48:58;;;;;;;12.05;8.35;;;;;;;2.39;76.49;149269.63;10255177;29;20063;-68
2023/12/08 12:54:01;;;;;;;12.13;7.97;;;;;;;2.33;76.15;149252.94;10255404;29;20047;-68
2023/12/08 12:59:10;;;;;;;9.20;7.72;;;;;;;2.38;75.01;149265.75;10299864;23;20089;-68
2023/12/08 13:04:11;;;;;;;9.32;6.80;;;;;;;2.48;75.63;149292.72;10420711;28;20101;-68
2023/12/08 13:09:25;;;;;;;9.40;6.90;;;;;;;2.48;75.24;149291.44;10422131;28;20080;-67
2023/12/08 13:14:27;;;;;;;7.82;6.63;;;;;;;2.55;74.79;149308.09;10384945;28;20052;-70
2023/12/08 13:19:29;;;;;;;7.38;6.40;;;;;;;2.62;73.13;149326.06;10419232;28;20069;-68
2023/12/08 13:24:31;;;;;;;8.02;6.22;;;;;;;2.24;77.18;149232.41;10419578;28;20064;-69
2023/12/08 13:29:33;;;;;;;7.55;5.90;;;;;;;2.27;76.33;149238.84;10411943;22;20050;-68
2023/12/08 13:34:35;;;;;;;10.93;7.88;;;;;;;2.28;75.95;149242.66;10377524;28;20066;-67
2023/12/08 13:39:38;;;;;;;10.65;6.65;;;;;;;2.20;75.25;149222.13;10359735;28;20478;-68
2023/12/08 13:44:40;;;;;;;8.32;7.13;;;;;;;2.37;74.31;149264.47;10375984;28;20604;-68
2023/12/08 13:49:47;;;;;;;8.68;7.30;;;;;;;2.11;76.63;149199.06;10375904;28;20077;-68
2023/12/08 13:54:49;;;;;;;7.65;6.80;;;;;;;1.82;78.17;149124.72;10361811;28;20057;-68
2023/12/08 13:59:52;;;;;;;10.10;8.25;;;;;;;1.72;78.75;149101.59;10383763;28;20070;-69
2023/12/08 14:04:54;;;;;;;8.75;6.88;;;;;;;1.93;78.20;149152.91;10391324;23;20057;-69
2023/12/08 14:09:55;;;;;;;12.73;8.50;;;;;;;1.74;79.42;149106.75;10382671;28;20048;-69
2023/12/08 14:14:57;;;;;;;14.63;8.63;;;;;;;1.83;79.19;149128.53;10384826;28;20096;-70
2023/12/08 14:19:59;;;;;;;8.50;6.72;;;;;;;1.77;78.35;149114.44;10383761;28;20108;-70
2023/12/08 14:25:01;;;;;;;9.15;7.80;;;;;;;1.50;79.97;149046.47;10382767;28;20045;-69
2023/12/08 14:30:03;;;;;;;9.93;6.75;;;;;;;1.59;79.89;149066.97;10383334;28;20054;-68
2023/12/08 14:35:06;;;;;;;9.98;7.53;;;;;;;1.34;81.03;149004.22;10381247;28;20109;-70
2023/12/08 14:40:23;;;;;;;11.98;7.35;;;;;;;1.46;81.16;149036.25;10382423;28;20049;-69
2023/12/08 14:45:25;;;;;;;11.70;8.10;;;;;;;1.48;80.78;149040.09;10382067;28;20050;-70
2023/12/08 14:50:29;;;;;;;12.68;8.02;;;;;;;1.35;81.20;149006.75;10382068;28;20069;-69
2023/12/08 14:55:31;;;;;;;9.95;8.32;;;;;;;1.25;82.86;148983.69;10381245;28;20034;-70
2023/12/08 15:00:33;;;;;;;12.18;9.90;;;;;;;1.11;83.66;148947.81;10444920;23;20041;-67
2023/12/08 15:05:38;;;;;;;14.55;10.65;;;;;;;1.22;83.15;148976.00;10405175;28;20037;-68
2023/12/08 15:10:40;;;;;;;19.42;11.85;;;;;;;1.10;84.73;148943.94;10403677;28;20101;-68
2023/12/08 15:15:42;;;;;;;15.88;11.02;;;;;;;0.99;85.43;148917.06;10420709;28;20539;-67
2023/12/08 15:20:52;;;;;;;12.07;10.70;;;;;;;1.12;84.79;148950.38;10421114;28;20065;-68
2023/12/08 15:25:54;;;;;;;16.42;11.43;;;;;;;1.13;85.31;148951.66;10421349;28;20175;-68
2023/12/08 15:30:55;;;;;;;19.38;14.05;;;;;;;1.11;85.77;148947.81;10392473;23;20084;-69
2023/12/08 15:35:58;;;;;;;13.35;11.15;;;;;;;1.11;86.43;148946.56;10379116;28;20044;-69
2023/12/08 15:41:02;;;;;;;15.20;12.13;;;;;;;1.03;88.21;148926.03;10379810;28;20081;-69
2023/12/08 15:46:07;;;;;;;17.33;11.73;;;;;;;1.11;86.77;148946.56;10379369;28;20046;-70
2023/12/08 15:51:10;;;;;;;18.95;12.05;;;;;;;1.07;88.19;148937.56;10378973;28;20053;-69
2023/12/08 15:56:12;;;;;;;13.27;11.73;;;;;;;1.02;88.39;148924.75;10391330;23;20050;-69
2023/12/08 16:01:20;;;;;;;19.48;11.25;;;;;;;1.14;87.54;148954.19;10362119;28;20046;-67
2023/12/08 16:06:22;;;;;;;15.05;11.50;;;;;;;0.93;92.51;148902.97;10380735;28;20045;-67
2023/12/08 16:11:26;;;;;;;17.48;11.20;;;;;;;1.11;92.78;148946.56;10378713;28;20048;-67
2023/12/08 16:16:27;;;;;;;18.17;11.73;;;;;;;0.92;95.48;148899.09;10376850;28;20042;-67
2023/12/08 16:21:29;;;;;;;16.52;11.80;;;;;;;0.92;96.30;148900.38;10360591;28;20117;-68
2023/12/08 16:26:34;;;;;;;18.95;12.82;;;;;;;0.89;97.13;148892.72;10413035;22;20064;-67
2023/12/08 16:31:39;;;;;;;17.92;12.63;;;;;;;0.88;97.84;148890.13;10382407;23;20428;-68
2023/12/08 16:36:40;;;;;;;15.48;12.52;;;;;;;0.90;98.36;148894.00;10360886;28;20038;-68
2023/12/08 16:41:47;;;;;;;19.55;11.82;;;;;;;0.60;100.00;148818.41;10377268;28;20045;-67
2023/12/08 16:46:49;;;;;;;16.90;11.60;;;;;;;0.77;100.00;148860.69;10377487;28;20496;-67
2023/12/08 16:51:50;;;;;;;16.40;12.05;;;;;;;0.89;100.00;148892.72;10378891;28;20042;-67
2023/12/08 16:56:53;;;;;;;14.98;11.85;;;;;;;0.78;100.00;148863.25;10378080;28;20133;-66
2023/12/08 17:01:56;;;;;;;14.10;11.70;;;;;;;0.88;99.09;148888.84;10418262;23;20052;-70
2023/12/08 17:06:57;;;;;;;14.05;10.90;;;;;;;0.81;100.00;148872.22;10376733;28;20042;-70
2023/12/08 17:12:01;;;;;;;13.00;11.55;;;;;;;0.72;100.00;148850.44;10375245;28;20041;-69
2023/12/08 17:17:06;;;;;;;15.50;11.30;;;;;;;0.73;100.00;148851.72;10374879;28;20065;-70
2023/12/08 17:22:07;;;;;;;14.27;12.38;;;;;;;0.51;100.00;148796.63;10373472;28;20049;-70
2023/12/08 17:27:09;;;;;;;18.40;13.43;;;;;;;0.56;100.00;148809.44;10379845;28;20041;-70
2023/12/08 17:32:12;;;;;;;20.48;14.43;;;;;;;0.70;100.00;148844.03;10421459;23;20160;-71
2023/12/08 17:37:17;;;;;;;17.60;13.48;;;;;;;0.65;100.00;148831.22;10402710;28;20097;-71
2023/12/08 17:42:21;;;;;;;23.30;11.32;;;;;;;0.82;100.00;148873.50;10402258;28;20107;-71
2023/12/08 17:47:25;;;;;;;22.90;14.23;;;;;;;0.79;100.00;148867.06;10400578;28;20061;-71
2023/12/08 17:52:28;;;;;;;14.63;11.93;;;;;;;0.57;100.00;148812.00;10408866;28;20102;-71
2023/12/08 17:57:30;;;;;;;13.75;10.60;;;;;;;0.74;100.00;148854.28;10408351;28;20053;-72
2023/12/08 18:02:32;;;;;;;20.65;13.27;;;;;;;0.76;100.00;148859.41;10401913;23;20462;-67
2023/12/08 18:07:34;;;;;;;21.08;15.02;;;;;;;0.79;100.00;148867.06;10384303;28;20045;-67
2023/12/08 18:12:36;;;;;;;17.10;12.80;;;;;;;0.70;100.00;148844.03;10365385;28;20100;-66
2023/12/08 18:17:38;;;;;;;14.32;12.32;;;;;;;0.69;100.00;148841.47;10403875;28;20561;-68
2023/12/08 18:22:40;;;;;;;14.75;12.38;;;;;;;0.62;100.00;148824.84;10375508;28;20049;-66
2023/12/08 18:27:42;;;;;;;17.52;13.15;;;;;;;0.68;100.00;148838.91;10424143;28;20060;-67
2023/12/08 18:33:04;;;;;;;18.25;13.70;;;;;;;0.87;100.00;148886.31;10400712;28;20038;-67
2023/12/08 18:38:06;;;;;;;14.27;12.77;;;;;;;0.81;100.00;148870.94;10365417;28;20042;-68
2023/12/08 18:43:09;;;;;;;14.65;12.90;;;;;;;0.67;100.00;148836.38;10382025;28;20037;-67
2023/12/08 18:48:10;;;;;;;16.45;12.93;;;;;;;0.71;100.00;148846.63;10391893;28;20046;-68
2023/12/08 18:53:13;;;;;;;16.38;12.23;;;;;;;0.56;100.00;148808.16;10425262;28;20038;-67
2023/12/08 18:58:15;;;;;;;12.82;10.70;;;;;;;0.70;100.00;148844.03;10452595;23;20072;-69
2023/12/08 19:03:17;;;;;;;14.20;12.77;;;;;;;0.88;100.00;148890.13;10408839;28;20406;-69
2023/12/08 19:08:21;;;;;;;16.48;12.35;;;;;;;0.53;100.00;148800.47;10409677;28;20048;-70
2023/12/08 19:13:27;;;;;;;13.57;11.30;;;;;;;0.92;100.00;148899.09;10408310;28;20045;-70
2023/12/08 19:18:29;;;;;;;15.10;12.23;;;;;;;0.70;100.00;148845.28;10424657;28;20049;-70
2023/12/08 19:23:43;;;;;;;12.23;10.88;;;;;;;0.74;100.00;148854.28;10407966;28;20038;-68
2023/12/08 19:28:46;;;;;;;16.13;12.77;;;;;;;0.70;100.00;148844.03;10472689;23;20040;-69
2023/12/08 19:33:48;;;;;;;18.92;13.75;;;;;;;0.74;100.00;148854.28;10464532;28;20076;-69
2023/12/08 19:38:50;;;;;;;16.63;11.80;;;;;;;0.93;100.00;148902.97;10462260;28;20044;-67
2023/12/08 19:43:51;;;;;;;20.35;12.60;;;;;;;0.97;100.00;148911.91;10443979;28;20048;-68
2023/12/08 19:48:53;;;;;;;12.93;11.27;;;;;;;1.15;98.83;148958.06;10462378;28;20444;-69
2023/12/08 19:53:55;;;;;;;13.43;11.80;;;;;;;1.07;97.36;148937.56;10464432;28;20052;-70
2023/12/08 19:58:57;;;;;;;13.13;11.02;;;;;;;1.16;96.43;148959.34;10461533;28;20045;-68
2023/12/08 20:03:59;;;;;;;11.50;10.35;;;;;;;1.07;96.94;148937.56;10462041;28;20400;-69
2023/12/08 20:09:02;;;;;;;12.52;11.23;;;;;;;1.27;95.34;148988.81;10461844;28;20385;-70
2023/12/08 20:14:05;;;;;;;13.10;10.88;;;;;;;0.91;96.42;148897.84;10463945;28;20037;-68
2023/12/08 20:19:08;;;;;;;13.35;11.30;;;;;;;1.17;94.14;148963.19;10460661;28;20053;-69
2023/12/08 20:24:15;;;;;;;10.65;9.60;;;;;;;1.09;95.77;148941.41;10459865;28;20049;-68
2023/12/08 20:29:17;;;;;;;13.83;9.93;;;;;;;1.47;93.04;149038.81;10460092;28;20053;-69
2023/12/08 20:34:19;;;;;;;11.15;8.98;;;;;;;1.35;91.32;149008.03;10462907;28;20441;-69
2023/12/08 20:39:23;;;;;;;12.43;10.70;;;;;;;1.29;91.62;148991.41;10460035;28;20098;-70
2023/12/08 20:44:25;;;;;;;11.35;9.48;;;;;;;1.47;90.98;149038.81;10460366;28;20049;-70
2023/12/08 20:49:27;;;;;;;13.93;10.38;;;;;;;1.22;90.65;148974.72;10459559;28;20447;-68
2023/12/08 20:54:29;;;;;;;13.00;9.13;;;;;;;1.40;89.57;149019.56;10462303;28;20092;-68
2023/12/08 20:59:31;;;;;;;12.38;9.32;;;;;;;1.35;90.38;149006.75;10457706;28;20559;-69
2023/12/08 21:04:32;;;;;;;12.70;10.95;;;;;;;1.32;91.49;148999.06;10459621;28;20045;-69
2023/12/08 21:09:34;;;;;;;12.93;10.55;;;;;;;1.53;89.93;149052.91;10441286;28;20068;-70
2023/12/08 21:14:37;;;;;;;12.02;10.00;;;;;;;1.37;89.69;149011.88;10459981;28;20472;-70
2023/12/08 21:19:39;;;;;;;12.25;10.25;;;;;;;1.59;88.70;149066.97;10460808;28;20041;-69
2023/12/08 21:24:42;;;;;;;9.70;8.55;;;;;;;1.48;90.80;149041.34;10464839;28;20037;-69
